Time;durP1;ratioP1;P1;durP2;ratioP2;P2;SDS_P1;SDS_P2;PMS_P1;PMS_P2;Temp;Humidity;BMP_temperature;BMP_pressure;BME280_temperature;BME280_humidity;BME280_pressure;Samples;Min_cycle;Max_cycle;Signal;HPM_P1;HPM_P2
2023/04/06 00:02:33;;;;;;;1.32;0.70;;;;;;;23.06;32.37;99419.73;1859922;75;28226;-50
2023/04/06 00:05:22;;;;;;;0.65;0.65;;;;;;;23.08;32.34;99425.27;1844619;76;28235;-48
2023/04/06 00:08:11;;;;;;;0.50;0.50;;;;;;;23.06;32.35;99426.05;1840703;76;28239;-47
2023/04/06 00:11:00;;;;;;;0.45;0.45;;;;;;;23.09;32.34;99422.84;1846550;75;28228;-51
2023/04/06 00:13:49;;;;;;;0.50;0.50;;;;;;;23.05;32.39;99417.55;1860625;76;28176;-51
2023/04/06 00:16:38;;;;;;;0.50;0.50;;;;;;;23.06;32.40;99425.20;1867632;76;28174;-50
2023/04/06 00:19:26;;;;;;;0.60;0.60;;;;;;;23.05;32.39;99423.03;1851192;76;28116;-50
2023/04/06 00:22:14;;;;;;;0.50;0.50;;;;;;;23.06;32.41;99423.31;1865680;76;28257;-51
2023/04/06 00:25:03;;;;;;;0.50;0.50;;;;;;;23.07;32.41;99429.63;1865482;75;28187;-51
2023/04/06 00:27:51;;;;;;;0.60;0.60;;;;;;;23.05;32.45;99428.51;1846532;76;28241;-52
2023/04/06 00:30:40;;;;;;;0.40;0.40;;;;;;;23.08;32.42;99429.94;1852751;76;28134;-52
2023/04/06 00:33:29;;;;;;;0.50;0.50;;;;;;;23.07;32.46;99428.26;1857916;76;28186;-52
2023/04/06 00:36:18;;;;;;;0.57;0.57;;;;;;;23.06;32.44;99423.31;1869879;75;27988;-51
2023/04/06 00:39:06;;;;;;;0.60;0.60;;;;;;;23.07;32.46;99423.62;1849112;76;28118;-51
2023/04/06 00:41:56;;;;;;;0.47;0.47;;;;;;;23.07;32.47;99425.52;1805449;77;28268;-54
2023/04/06 00:44:45;;;;;;;0.50;0.50;;;;;;;23.05;32.50;99418.92;1865537;76;28115;-50
2023/04/06 00:47:34;;;;;;;0.60;0.60;;;;;;;23.08;32.48;99423.09;1846814;76;28188;-50
2023/04/06 00:50:23;;;;;;;0.50;0.50;;;;;;;23.07;32.49;99419.51;1852980;76;28115;-55
2023/04/06 00:53:11;;;;;;;0.50;0.50;;;;;;;23.05;32.51;99413.44;1841726;76;28203;-49
2023/04/06 00:55:59;;;;;;;0.50;0.50;;;;;;;23.05;32.56;99416.18;1856999;76;28160;-50
2023/04/06 00:58:48;;;;;;;0.45;0.45;;;;;;;23.04;32.54;99418.61;1838876;76;30098;-50
2023/04/06 01:01:36;;;;;;;0.50;0.50;;;;;;;23.06;32.55;99415.09;1875704;76;28156;-52
2023/04/06 01:04:27;;;;;;;0.50;0.50;;;;;;;23.06;32.56;99410.14;1822788;77;28109;-51
2023/04/06 01:07:16;;;;;;;0.40;0.40;;;;;;;23.07;32.55;99413.19;1812282;78;28331;-50
2023/04/06 01:10:06;;;;;;;0.53;0.53;;;;;;;23.06;32.58;99407.40;1803448;78;28384;-51
2023/04/06 01:12:55;;;;;;;0.60;0.60;;;;;;;23.06;32.57;99406.87;1795925;78;28275;-51
2023/04/06 01:15:46;;;;;;;0.62;0.60;;;;;;;23.06;32.55;99394.54;1824742;77;28118;-52
2023/04/06 01:18:36;;;;;;;0.50;0.50;;;;;;;23.06;32.56;99400.55;1835843;76;28065;-51
2023/04/06 01:21:31;;;;;;;0.42;0.42;;;;;;;23.05;32.61;99398.37;1815960;77;28215;-53
2023/04/06 01:24:31;;;;;;;0.60;0.60;;;;;;;23.05;32.59;99400.27;1812230;78;28260;-52
2023/04/06 01:27:26;;;;;;;0.50;0.50;;;;;;;23.05;32.59;99400.27;1832079;77;28236;-50
2023/04/06 01:30:17;;;;;;;0.60;0.60;;;;;;;23.03;32.61;99393.67;1819465;77;28224;-51
2023/04/06 01:33:21;;;;;;;1.10;0.53;;;;;;;23.04;32.59;99398.06;1803862;78;28282;-50
2023/04/06 01:36:12;;;;;;;0.50;0.50;;;;;;;23.03;32.61;99396.41;1834715;77;28268;-50
2023/04/06 01:39:00;;;;;;;0.47;0.47;;;;;;;23.04;32.60;99400.80;1841426;77;28271;-53
2023/04/06 01:41:51;;;;;;;0.50;0.50;;;;;;;23.05;32.60;99407.12;1795276;78;28402;-51
2023/04/06 01:44:40;;;;;;;0.50;0.50;;;;;;;23.06;32.56;99404.66;1791995;78;28316;-52
2023/04/06 01:47:30;;;;;;;0.60;0.60;;;;;;;23.04;32.59;99406.28;1823437;77;28298;-53
2023/04/06 01:50:19;;;;;;;0.60;0.60;;;;;;;23.05;32.63;99405.22;1810620;77;28447;-51
2023/04/06 01:53:07;;;;;;;1.00;0.53;;;;;;;23.06;32.58;99395.06;1833089;77;28083;-53
2023/04/06 01:55:58;;;;;;;0.65;0.65;;;;;;;23.06;32.58;99394.54;1818803;77;28295;-52
2023/04/06 01:58:47;;;;;;;0.47;0.47;;;;;;;23.05;32.59;99394.79;1827769;77;28169;-52
2023/04/06 02:01:37;;;;;;;0.60;0.60;;;;;;;23.06;32.57;99397.28;1810069;78;38302;-53
2023/04/06 02:04:26;;;;;;;0.60;0.60;;;;;;;23.05;32.48;99399.73;1859487;75;28129;-51
2023/04/06 02:07:15;;;;;;;0.67;0.67;;;;;;;23.06;32.30;99398.65;1857739;75;28103;-54
2023/04/06 02:10:06;;;;;;;0.60;0.60;;;;;;;23.05;32.22;99404.38;1851998;76;28130;-49
2023/04/06 02:12:56;;;;;;;0.90;0.60;;;;;;;23.04;32.21;99410.39;1849445;76;28146;-51
2023/04/06 02:15:46;;;;;;;0.70;0.70;;;;;;;23.06;32.10;99409.61;1857228;76;28056;-51
2023/04/06 02:18:34;;;;;;;0.60;0.60;;;;;;;23.05;32.07;99403.84;1880773;75;28154;-54
2023/04/06 02:21:22;;;;;;;0.70;0.70;;;;;;;23.06;32.08;99407.40;1866821;75;28130;-49
2023/04/06 02:24:11;;;;;;;1.10;0.73;;;;;;;23.06;31.98;99410.98;1843177;76;28261;-51
2023/04/06 02:27:00;;;;;;;0.53;0.53;;;;;;;23.04;32.28;99406.81;1857890;76;28205;-48
2023/04/06 02:29:48;;;;;;;0.50;0.50;;;;;;;23.02;32.32;99402.95;1863768;76;28159;-50
2023/04/06 02:32:38;;;;;;;0.70;0.70;;;;;;;23.02;32.34;99402.95;1872934;75;28060;-51
2023/04/06 02:35:30;;;;;;;1.22;0.80;;;;;;;23.05;32.21;99405.22;1848382;76;28115;-47
2023/04/06 02:38:19;;;;;;;0.80;0.80;;;;;;;23.06;32.06;99405.50;1867492;75;28134;-47
2023/04/06 02:41:07;;;;;;;0.72;0.72;;;;;;;23.05;31.99;99409.33;1894291;75;28001;-51
2023/04/06 02:43:55;;;;;;;0.62;0.62;;;;;;;23.06;31.99;99403.29;1854907;76;28105;-51
2023/04/06 02:46:45;;;;;;;0.70;0.70;;;;;;;23.06;31.91;99395.06;1863909;76;28223;-49
2023/04/06 02:49:34;;;;;;;0.70;0.70;;;;;;;23.06;31.87;99404.13;1866719;75;28139;-50
2023/04/06 02:52:22;;;;;;;0.50;0.50;;;;;;;23.08;31.82;99409.39;1854872;75;28101;-50
2023/04/06 02:55:11;;;;;;;0.65;0.65;;;;;;;23.07;31.84;99403.07;1864851;76;28109;-47
2023/04/06 02:57:59;;;;;;;0.60;0.60;;;;;;;23.07;31.84;99401.70;1863611;75;28235;-48
2023/04/06 03:00:49;;;;;;;0.60;0.60;;;;;;;23.07;31.79;99405.81;1807346;76;28148;-48
2023/04/06 03:03:38;;;;;;;0.75;0.75;;;;;;;23.07;31.74;99410.45;1879160;75;28064;-47
2023/04/06 03:06:28;;;;;;;0.80;0.80;;;;;;;23.06;31.84;99400.02;1864424;76;28116;-47
2023/04/06 03:09:18;;;;;;;0.67;0.67;;;;;;;23.06;31.79;99401.92;1837516;76;28145;-52
2023/04/06 03:12:07;;;;;;;0.70;0.70;;;;;;;23.06;31.82;99404.66;1863862;76;28085;-50
2023/04/06 03:14:57;;;;;;;0.60;0.60;;;;;;;23.05;31.84;99399.73;1845800;76;28188;-48
2023/04/06 03:17:46;;;;;;;0.75;0.70;;;;;;;23.06;31.80;99410.98;1893131;75;28027;-46
2023/04/06 03:20:36;;;;;;;0.68;0.68;;;;;;;23.07;31.73;99407.18;1862139;76;28115;-50
2023/04/06 03:23:25;;;;;;;0.70;0.70;;;;;;;23.06;31.74;99415.09;1856209;76;28136;-48
2023/04/06 03:26:15;;;;;;;0.68;0.68;;;;;;;22.99;31.67;99393.83;1861804;76;28080;-50
2023/04/06 03:29:04;;;;;;;1.10;0.68;;;;;;;23.06;31.80;99410.98;1839947;76;28125;-51
2023/04/06 03:31:53;;;;;;;0.70;0.70;;;;;;;23.07;31.76;99417.30;1857792;76;28235;-49
2023/04/06 03:34:42;;;;;;;0.80;0.80;;;;;;;23.10;31.73;99414.09;1875248;75;28094;-49
2023/04/06 03:37:31;;;;;;;0.70;0.70;;;;;;;23.12;31.68;99414.67;1873231;75;28052;-49
2023/04/06 03:40:21;;;;;;;0.53;0.53;;;;;;;23.10;31.73;99410.82;1851333;76;28122;-48
2023/04/06 03:43:09;;;;;;;0.67;0.60;;;;;;;23.09;31.69;99412.41;1860927;75;28085;-50
2023/04/06 03:45:58;;;;;;;0.50;0.50;;;;;;;23.09;31.71;99409.14;1858255;76;28142;-52
2023/04/06 03:48:49;;;;;;;0.45;0.45;;;;;;;23.09;31.69;99410.51;1880213;75;28130;-51
2023/04/06 03:51:38;;;;;;;0.88;0.72;;;;;;;23.09;31.72;99407.77;1859625;75;28243;-48
2023/04/06 03:54:27;;;;;;;0.60;0.60;;;;;;;23.07;31.82;99409.92;1858982;76;28283;-47
2023/04/06 03:57:15;;;;;;;0.80;0.80;;;;;;;22.97;31.89;99400.09;1862564;76;28761;-49
2023/04/06 04:00:04;;;;;;;0.75;0.75;;;;;;;23.05;31.88;99412.06;1858157;75;28104;-48
2023/04/06 04:02:53;;;;;;;0.60;0.60;;;;;;;23.07;31.88;99414.03;1866369;76;28163;-48
2023/04/06 04:05:42;;;;;;;0.65;0.65;;;;;;;23.08;31.90;99420.34;1869306;76;28208;-49
2023/04/06 04:08:31;;;;;;;0.75;0.60;;;;;;;23.07;31.93;99425.52;1850338;76;28181;-49
2023/04/06 04:11:19;;;;;;;0.85;0.85;;;;;;;23.07;31.81;99427.73;1869324;76;28095;-47
2023/04/06 04:14:09;;;;;;;0.78;0.78;;;;;;;23.09;31.79;99428.84;1891455;74;28067;-50
2023/04/06 04:16:58;;;;;;;0.78;0.78;;;;;;;23.07;31.83;99429.09;1873297;76;28090;-50
2023/04/06 04:19:46;;;;;;;0.50;0.50;;;;;;;23.07;31.81;99437.31;1866841;76;28109;-49
2023/04/06 04:22:36;;;;;;;0.80;0.50;;;;;;;23.07;31.96;99437.84;1831992;76;28182;-50
2023/04/06 04:25:24;;;;;;;0.60;0.60;;;;;;;23.05;32.22;99432.62;1849404;76;28175;-51
2023/04/06 04:28:13;;;;;;;0.68;0.68;;;;;;;23.04;32.28;99441.05;1823170;77;28420;-50
2023/04/06 04:31:01;;;;;;;0.50;0.50;;;;;;;23.03;32.39;99442.98;1820753;77;28195;-47
2023/04/06 04:33:51;;;;;;;0.60;0.60;;;;;;;22.99;32.47;99443.14;1835297;77;28173;-50
2023/04/06 04:36:48;;;;;;;0.65;0.65;;;;;;;23.00;32.55;99448.94;1839685;76;28115;-47
2023/04/06 04:39:33;;;;;;;0.50;0.50;;;;;;;23.00;32.59;99451.67;1841946;77;28126;-45
2023/04/06 04:42:26;;;;;;;0.65;0.65;;;;;;;22.99;32.61;99449.98;1801999;78;28471;-50
2023/04/06 04:45:16;;;;;;;0.50;0.50;;;;;;;22.99;32.67;99450.52;1828041;76;28468;-50
2023/04/06 04:48:05;;;;;;;0.70;0.70;;;;;;;23.01;32.67;99449.21;1843404;76;28073;-49
2023/04/06 04:50:55;;;;;;;0.60;0.60;;;;;;;23.01;32.68;99447.03;1831513;77;28156;-52
2023/04/06 04:53:45;;;;;;;0.40;0.40;;;;;;;23.02;32.67;99463.22;1847471;76;28126;-49
2023/04/06 04:56:44;;;;;;;0.60;0.60;;;;;;;23.03;32.68;99468.17;1835417;76;28259;-50
2023/04/06 04:59:47;;;;;;;1.17;0.80;;;;;;;23.00;32.72;99466.73;1804730;78;28311;-50
2023/04/06 05:02:37;;;;;;;1.20;0.60;;;;;;;22.99;32.79;99466.95;1824444;78;28234;-51
2023/04/06 05:05:30;;;;;;;0.40;0.40;;;;;;;22.99;32.80;99471.06;1819689;77;28426;-51
2023/04/06 05:08:20;;;;;;;0.60;0.60;;;;;;;23.01;32.81;99476.61;1823063;78;28355;-48
2023/04/06 05:11:10;;;;;;;0.47;0.47;;;;;;;23.02;32.79;99474.18;1823364;78;28340;-49
2023/04/06 05:14:00;;;;;;;0.60;0.60;;;;;;;23.01;32.82;99473.87;1820264;78;28416;-51
2023/04/06 05:16:49;;;;;;;0.60;0.60;;;;;;;23.04;32.80;99482.15;1815096;78;28336;-51
2023/04/06 05:19:38;;;;;;;0.60;0.60;;;;;;;23.06;32.82;99486.85;1809473;78;28278;-48
2023/04/06 05:22:26;;;;;;;0.70;0.70;;;;;;;23.06;32.78;99491.80;1830924;77;28104;-48
2023/04/06 05:25:20;;;;;;;0.50;0.50;;;;;;;23.08;32.80;99494.33;1845051;76;28164;-51
2023/04/06 05:28:10;;;;;;;1.80;0.60;;;;;;;23.07;32.79;99489.38;1834525;77;28062;-53
2023/04/06 05:30:59;;;;;;;0.78;0.60;;;;;;;23.08;32.81;99492.39;1823623;77;28334;-49
2023/04/06 05:33:49;;;;;;;0.50;0.50;;;;;;;23.09;32.80;99496.81;1820923;78;28340;-49
2023/04/06 05:36:40;;;;;;;0.50;0.50;;;;;;;23.10;32.82;99495.76;1818965;77;28182;-50
2023/04/06 05:39:31;;;;;;;0.60;0.60;;;;;;;23.10;32.83;99497.13;1823046;78;28227;-51
2023/04/06 05:42:20;;;;;;;0.60;0.60;;;;;;;23.12;32.83;99498.25;1816790;78;28216;-50
2023/04/06 05:45:16;;;;;;;0.60;0.60;;;;;;;23.12;32.87;99497.72;1835820;77;28221;-47
2023/04/06 05:48:02;;;;;;;0.47;0.47;;;;;;;23.14;32.82;99502.95;1833189;77;28087;-46
2023/04/06 05:50:51;;;;;;;0.47;0.47;;;;;;;23.17;32.84;99502.48;1849252;76;28230;-47
2023/04/06 05:53:41;;;;;;;0.60;0.60;;;;;;;23.16;32.86;99504.38;1827043;77;28167;-48
2023/04/06 05:56:31;;;;;;;0.50;0.50;;;;;;;23.16;32.88;99503.02;1823019;78;28267;-48
2023/04/06 05:59:21;;;;;;;0.60;0.60;;;;;;;23.18;32.90;99501.39;1831394;77;28385;-48
2023/04/06 06:02:10;;;;;;;0.62;0.62;;;;;;;23.18;32.90;99501.39;1813890;78;28313;-51
2023/04/06 06:05:00;;;;;;;0.60;0.60;;;;;;;23.21;32.84;99509.99;1808548;78;28291;-52
2023/04/06 06:07:49;;;;;;;0.70;0.70;;;;;;;23.22;32.86;99515.75;1873948;75;28046;-50
2023/04/06 06:10:40;;;;;;;0.57;0.57;;;;;;;23.24;32.86;99514.97;1857507;75;28088;-48
2023/04/06 06:13:29;;;;;;;0.50;0.50;;;;;;;23.24;32.85;99513.60;1897790;75;28018;-47
2023/04/06 06:16:19;;;;;;;0.60;0.60;;;;;;;23.27;32.86;99517.78;1854212;76;28051;-49
2023/04/06 06:19:08;;;;;;;0.60;0.60;;;;;;;23.28;32.87;99510.70;1848728;76;28122;-48
2023/04/06 06:21:58;;;;;;;0.67;0.67;;;;;;;23.30;32.84;99515.94;1837983;76;28111;-49
2023/04/06 06:24:47;;;;;;;0.80;0.70;;;;;;;23.26;32.93;99510.11;1867393;76;28186;-52
2023/04/06 06:27:36;;;;;;;0.50;0.50;;;;;;;23.26;32.62;99508.74;1850703;76;28127;-49
2023/04/06 06:30:26;;;;;;;2.30;1.20;;;;;;;23.28;32.54;99512.08;1865378;76;28112;-53
2023/04/06 06:33:14;;;;;;;0.88;0.88;;;;;;;23.23;32.12;99511.11;1830816;77;28255;-49
2023/04/06 06:36:03;;;;;;;0.80;0.80;;;;;;;23.16;32.34;99508.50;1852067;76;28103;-50
2023/04/06 06:38:51;;;;;;;0.80;0.80;;;;;;;23.15;32.42;99503.27;1851890;76;28202;-50
2023/04/06 06:41:41;;;;;;;0.60;0.60;;;;;;;23.11;32.47;99508.37;1866363;76;28185;-51
2023/04/06 06:44:30;;;;;;;0.70;0.70;;;;;;;23.12;32.56;99500.46;1866013;75;28115;-50
2023/04/06 06:47:18;;;;;;;0.60;0.60;;;;;;;23.12;32.54;99504.57;1857018;76;28157;-48
2023/04/06 06:50:09;;;;;;;0.60;0.60;;;;;;;23.15;32.57;99497.78;1866706;76;28063;-48
2023/04/06 06:52:57;;;;;;;0.88;0.70;;;;;;;23.12;32.67;99500.46;1880180;75;28173;-49
2023/04/06 06:55:46;;;;;;;0.50;0.50;;;;;;;23.14;32.63;99506.53;1871802;75;28108;-49
2023/04/06 06:58:34;;;;;;;0.72;0.72;;;;;;;23.16;32.65;99503.02;1840448;76;28126;-49
2023/04/06 07:01:23;;;;;;;0.70;0.70;;;;;;;23.20;32.63;99501.45;1890241;75;28434;-50
2023/04/06 07:04:12;;;;;;;0.80;0.80;;;;;;;23.23;32.66;99502.89;1886976;75;28132;-50
2023/04/06 07:07:01;;;;;;;0.60;0.60;;;;;;;23.28;32.84;99502.48;1848355;77;28119;-49
2023/04/06 07:09:49;;;;;;;0.47;0.47;;;;;;;23.44;32.65;99504.22;1863190;75;28154;-53
2023/04/06 07:12:37;;;;;;;0.65;0.65;;;;;;;23.49;32.45;99501.06;1839424;77;28420;-51
2023/04/06 07:15:26;;;;;;;1.10;0.62;;;;;;;23.53;32.40;99495.92;1853923;76;30092;-49
2023/04/06 07:18:15;;;;;;;0.42;0.42;;;;;;;23.58;32.33;99497.41;1875211;75;28031;-49
2023/04/06 07:21:05;;;;;;;0.70;0.70;;;;;;;23.60;32.31;99501.58;1845876;77;28106;-48
2023/04/06 07:23:53;;;;;;;1.13;0.60;;;;;;;23.62;32.48;99499.98;1894150;75;28043;-48
2023/04/06 07:26:43;;;;;;;0.50;0.50;;;;;;;23.62;32.48;99499.98;1866449;75;30231;-51
2023/04/06 07:29:32;;;;;;;0.60;0.60;;;;;;;23.63;32.07;99492.04;1850873;75;28187;-51
2023/04/06 07:32:20;;;;;;;0.60;0.60;;;;;;;23.63;32.02;99490.67;1842269;77;28099;-49
2023/04/06 07:35:09;;;;;;;0.90;0.90;;;;;;;23.61;32.28;99492.29;1815535;78;28590;-51
2023/04/06 07:37:58;;;;;;;0.57;0.57;;;;;;;23.63;32.47;99489.30;1800679;79;28236;-48
2023/04/06 07:40:46;;;;;;;0.85;0.85;;;;;;;23.62;32.65;99490.39;1815189;78;28083;-51
2023/04/06 07:43:35;;;;;;;0.68;0.68;;;;;;;23.62;32.88;99487.65;1783567;79;28212;-48
2023/04/06 07:46:23;;;;;;;0.65;0.60;;;;;;;23.60;32.96;99483.75;1807483;78;28149;-50
2023/04/06 07:49:12;;;;;;;0.60;0.60;;;;;;;23.62;32.96;99484.91;1810471;78;28267;-52
2023/04/06 07:52:00;;;;;;;0.90;0.70;;;;;;;23.61;33.01;99493.66;1797122;79;28381;-49
2023/04/06 07:54:49;;;;;;;1.52;0.72;;;;;;;23.61;33.04;99491.45;1792722;79;28277;-48
2023/04/06 07:57:37;;;;;;;0.55;0.55;;;;;;;23.62;33.10;99492.56;1788117;79;28765;-48
2023/04/06 08:00:26;;;;;;;0.70;0.70;;;;;;;23.63;33.16;99494.25;1818279;78;28258;-49
2023/04/06 08:03:16;;;;;;;0.70;0.70;;;;;;;23.64;33.16;99492.34;1824225;78;28243;-47
2023/04/06 08:06:05;;;;;;;3.10;0.88;;;;;;;23.64;33.23;99492.34;1787717;79;28267;-48
2023/04/06 08:08:54;;;;;;;0.60;0.60;;;;;;;23.65;33.22;99496.20;1803913;78;28380;-50
2023/04/06 08:11:42;;;;;;;0.62;0.62;;;;;;;23.63;33.29;99490.67;1807876;78;28343;-50
2023/04/06 08:14:31;;;;;;;0.62;0.62;;;;;;;23.63;33.28;99493.41;1783695;79;28652;-46
2023/04/06 08:17:19;;;;;;;0.55;0.55;;;;;;;23.63;33.29;99489.30;1806010;79;28283;-49
2023/04/06 08:20:09;;;;;;;0.80;0.80;;;;;;;23.63;33.30;99492.04;1786716;79;28294;-50
2023/04/06 08:22:58;;;;;;;0.60;0.60;;;;;;;23.63;33.31;99492.88;1798275;79;28216;-46
2023/04/06 08:25:46;;;;;;;0.53;0.53;;;;;;;23.64;33.31;99494.53;1789047;79;28306;-47
2023/04/06 08:28:35;;;;;;;0.55;0.53;;;;;;;23.65;33.30;99494.00;1853171;76;28161;-46
2023/04/06 08:31:23;;;;;;;0.50;0.50;;;;;;;23.66;33.29;99494.31;1835111;77;28068;-49
2023/04/06 08:34:11;;;;;;;0.60;0.60;;;;;;;23.66;33.25;99497.05;1797628;79;28315;-51
2023/04/06 08:37:00;;;;;;;0.70;0.70;;;;;;;23.65;33.29;99493.47;1800087;79;28339;-49
2023/04/06 08:39:49;;;;;;;2.30;0.73;;;;;;;23.66;33.31;99488.30;1802677;78;28271;-49
2023/04/06 08:42:43;;;;;;;0.82;0.72;;;;;;;23.68;33.31;99490.78;1787905;79;28247;-51
2023/04/06 08:45:32;;;;;;;0.70;0.70;;;;;;;23.69;33.37;99497.91;1779836;79;28306;-50
2023/04/06 08:48:21;;;;;;;0.62;0.62;;;;;;;23.67;33.39;99489.09;1809604;78;28292;-51
2023/04/06 08:51:11;;;;;;;0.75;0.75;;;;;;;23.67;33.44;99493.21;1802421;78;28247;-50
2023/04/06 08:54:01;;;;;;;0.50;0.50;;;;;;;23.68;33.39;99495.73;1796859;79;28369;-52
2023/04/06 08:56:50;;;;;;;0.47;0.47;;;;;;;23.67;33.37;99495.95;1796084;79;28284;-47
2023/04/06 08:59:40;;;;;;;0.60;0.60;;;;;;;23.68;33.36;99490.25;1829832;77;28152;-48
2023/04/06 09:02:29;;;;;;;0.98;0.60;;;;;;;23.69;33.33;99493.27;1808459;79;28207;-49
2023/04/06 09:05:18;;;;;;;0.62;0.62;;;;;;;23.69;33.31;99486.95;1802119;79;38593;-49
2023/04/06 09:08:07;;;;;;;0.80;0.80;;;;;;;23.71;33.29;99493.05;1846918;76;28145;-50
2023/04/06 09:10:55;;;;;;;0.72;0.72;;;;;;;23.71;33.26;99493.86;1886290;74;28551;-51
2023/04/06 09:13:55;;;;;;;0.78;0.78;;;;;;;23.69;33.21;99487.78;1880232;76;28133;-50
2023/04/06 09:16:46;;;;;;;0.60;0.60;;;;;;;23.71;33.26;99482.08;1889694;74;28052;-49
2023/04/06 09:19:34;;;;;;;0.60;0.60;;;;;;;23.70;33.29;99489.47;1872619;74;28242;-50
2023/04/06 09:22:25;;;;;;;0.90;0.72;;;;;;;23.71;33.23;99482.89;1879747;74;28144;-49
2023/04/06 09:25:15;;;;;;;0.50;0.50;;;;;;;23.66;33.30;99472.37;1874209;76;28233;-49
2023/04/06 09:28:06;;;;;;;0.60;0.60;;;;;;;23.66;33.30;99472.37;1876802;76;28623;-50
2023/04/06 09:30:55;;;;;;;0.50;0.50;;;;;;;23.70;33.21;99471.64;1869752;76;28076;-51
2023/04/06 09:33:46;;;;;;;0.50;0.50;;;;;;;23.71;33.22;99473.85;1863241;74;27994;-50
2023/04/06 09:36:40;;;;;;;0.60;0.60;;;;;;;23.70;33.20;99472.17;1874774;74;28747;-51
2023/04/06 09:39:26;;;;;;;0.85;0.60;;;;;;;23.72;33.19;99472.75;1889014;74;27976;-49
2023/04/06 09:42:27;;;;;;;0.70;0.70;;;;;;;23.70;33.18;99469.42;1862228;76;28112;-47
2023/04/06 09:45:15;;;;;;;0.70;0.70;;;;;;;23.73;33.20;99470.33;1875629;76;28156;-47
2023/04/06 09:48:05;;;;;;;0.80;0.80;;;;;;;23.72;33.16;99467.27;1841852;77;28113;-50
2023/04/06 09:50:57;;;;;;;0.62;0.62;;;;;;;23.70;33.19;99466.16;1827564;77;38324;-54
2023/04/06 09:53:50;;;;;;;0.93;0.60;;;;;;;23.72;33.16;99463.16;1796840;78;28379;-47
2023/04/06 09:56:53;;;;;;;0.57;0.57;;;;;;;23.71;33.17;99456.02;1823178;78;28368;-47
2023/04/06 09:59:51;;;;;;;0.50;0.50;;;;;;;23.73;33.13;99447.02;1806736;78;28333;-50
2023/04/06 10:03:16;;;;;;;0.60;0.60;;;;;;;23.70;33.17;99448.33;1817562;78;28206;-48
2023/04/06 10:06:07;;;;;;;0.50;0.50;;;;;;;23.75;33.13;99451.71;1823990;78;28357;-51
2023/04/06 10:08:58;;;;;;;0.55;0.55;;;;;;;23.70;33.17;99446.11;1829749;77;28239;-48
2023/04/06 10:11:48;;;;;;;0.80;0.80;;;;;;;23.73;33.15;99451.13;1831760;77;28225;-47
2023/04/06 10:14:37;;;;;;;0.65;0.60;;;;;;;23.74;33.15;99445.92;1793789;78;28172;-50
2023/04/06 10:17:25;;;;;;;0.47;0.47;;;;;;;23.74;33.12;99445.92;1797035;77;28271;-51
2023/04/06 10:20:26;;;;;;;0.57;0.47;;;;;;;23.76;33.09;99443.23;1784603;78;28224;-52
2023/04/06 10:23:35;;;;;;;0.60;0.60;;;;;;;23.76;33.04;99439.11;1799381;79;28235;-50
2023/04/06 10:26:24;;;;;;;0.50;0.50;;;;;;;23.76;33.11;99436.37;1803554;78;28229;-50
2023/04/06 10:29:12;;;;;;;0.53;0.53;;;;;;;23.77;33.11;99437.21;1774903;79;28309;-49
2023/04/06 10:32:01;;;;;;;0.65;0.65;;;;;;;23.76;33.09;99434.16;1805480;79;30283;-51
2023/04/06 10:34:49;;;;;;;0.55;0.55;;;;;;;23.75;33.08;99434.72;1793959;78;28336;-48
2023/04/06 10:37:56;;;;;;;0.50;0.50;;;;;;;23.80;33.02;99436.73;1788617;79;28627;-48
2023/04/06 10:40:44;;;;;;;0.60;0.60;;;;;;;23.79;33.05;99431.78;1797739;78;28346;-49
2023/04/06 10:43:36;;;;;;;0.60;0.60;;;;;;;23.80;33.01;99431.25;1807868;78;28129;-48
2023/04/06 10:46:29;;;;;;;0.60;0.60;;;;;;;23.81;33.03;99433.73;1804728;79;28342;-49
2023/04/06 10:49:17;;;;;;;0.68;0.68;;;;;;;23.83;32.96;99432.11;1784643;79;28262;-47
2023/04/06 10:52:07;;;;;;;0.57;0.57;;;;;;;23.82;32.99;99423.60;1785550;79;28541;-49
2023/04/06 10:54:57;;;;;;;0.60;0.60;;;;;;;23.84;32.97;99415.95;1781912;79;28401;-49
2023/04/06 10:57:47;;;;;;;0.60;0.60;;;;;;;23.83;32.98;99419.77;1807874;79;28287;-48
2023/04/06 11:00:38;;;;;;;0.70;0.70;;;;;;;23.82;32.98;99416.21;1805742;78;28331;-54
2023/04/06 11:03:27;;;;;;;0.60;0.60;;;;;;;23.83;32.96;99410.16;1782841;79;28762;-48
2023/04/06 11:06:23;;;;;;;0.70;0.70;;;;;;;23.82;32.97;99403.87;1800286;77;30165;-51
2023/04/06 11:09:12;;;;;;;0.60;0.60;;;;;;;23.84;32.92;99394.85;1807791;78;28256;-51
2023/04/06 11:12:00;;;;;;;0.65;0.65;;;;;;;23.83;32.92;99399.19;1867746;75;28084;-51
2023/04/06 11:15:07;;;;;;;0.70;0.70;;;;;;;23.85;32.88;99390.20;1845184;76;28227;-50
2023/04/06 11:17:55;;;;;;;0.62;0.62;;;;;;;23.86;32.83;99387.73;1858955;75;28100;-51
2023/04/06 11:20:46;;;;;;;0.50;0.50;;;;;;;23.85;32.82;99386.09;1847564;75;28194;-49
2023/04/06 11:23:35;;;;;;;0.72;0.70;;;;;;;23.85;32.79;99382.78;1869470;75;28103;-47
2023/04/06 11:26:23;;;;;;;0.53;0.53;;;;;;;23.85;32.73;99377.86;1868751;75;28262;-49
2023/04/06 11:29:13;;;;;;;1.50;0.60;;;;;;;23.85;32.73;99381.41;1863662;75;28184;-49
2023/04/06 11:32:07;;;;;;;0.50;0.50;;;;;;;23.86;32.73;99375.39;1854741;75;28099;-52
2023/04/06 11:34:55;;;;;;;0.70;0.70;;;;;;;23.87;32.69;99380.66;1862389;76;28048;-46
2023/04/06 11:37:44;;;;;;;0.60;0.60;;;;;;;23.88;32.65;99377.34;1850674;76;28107;-49
2023/04/06 11:40:33;;;;;;;0.50;0.50;;;;;;;23.88;32.56;99356.77;1865807;76;28259;-50
2023/04/06 11:43:30;;;;;;;0.60;0.60;;;;;;;23.89;32.64;99373.54;1866765;75;27980;-49
2023/04/06 11:46:19;;;;;;;0.57;0.57;;;;;;;23.90;32.60;99355.98;1858290;76;28141;-48
2023/04/06 11:49:07;;;;;;;0.60;0.60;;;;;;;23.88;32.61;99360.36;1864148;75;28106;-46
2023/04/06 11:51:56;;;;;;;0.60;0.60;;;;;;;23.88;32.61;99359.52;1864638;76;28592;-51
2023/04/06 11:54:46;;;;;;;0.70;0.70;;;;;;;23.90;32.63;99353.23;1840979;76;28220;-50
2023/04/06 11:57:35;;;;;;;0.57;0.57;;;;;;;23.91;32.56;99342.04;1876442;75;28142;-48
2023/04/06 12:00:24;;;;;;;0.60;0.60;;;;;;;23.90;32.52;99345.84;1859347;76;28080;-49
2023/04/06 12:03:13;;;;;;;0.57;0.57;;;;;;;23.88;32.48;99341.16;1852468;76;28137;-48
2023/04/06 12:06:01;;;;;;;0.50;0.50;;;;;;;23.90;32.50;99336.78;1846352;76;37423;-50
2023/04/06 12:08:49;;;;;;;0.65;0.65;;;;;;;23.90;32.46;99335.41;1857923;76;28283;-49
2023/04/06 12:11:38;;;;;;;0.40;0.40;;;;;;;23.92;32.46;99340.13;1874297;76;28080;-50
2023/04/06 12:14:27;;;;;;;0.40;0.40;;;;;;;23.93;32.40;99328.91;1870399;74;28043;-50
2023/04/06 12:17:15;;;;;;;0.60;0.60;;;;;;;23.93;32.40;99324.78;1867481;76;28481;-49
2023/04/06 12:20:04;;;;;;;0.40;0.40;;;;;;;23.96;32.33;99326.20;1855390;76;28258;-51
2023/04/06 12:22:52;;;;;;;0.40;0.40;;;;;;;23.96;32.29;99320.72;1872346;76;31067;-48
2023/04/06 12:25:43;;;;;;;0.60;0.60;;;;;;;23.95;32.28;99325.91;1851319;76;38531;-51
2023/04/06 12:28:31;;;;;;;0.40;0.40;;;;;;;23.96;32.27;99323.46;1889184;74;28145;-50
2023/04/06 12:31:22;;;;;;;0.45;0.45;;;;;;;23.94;32.27;99324.25;1873633;74;28396;-48
2023/04/06 12:34:10;;;;;;;0.50;0.50;;;;;;;23.96;32.17;99317.98;1858698;76;28145;-50
2023/04/06 12:36:59;;;;;;;0.40;0.40;;;;;;;23.96;32.21;99322.93;1847143;76;28172;-50
2023/04/06 12:39:48;;;;;;;0.55;0.55;;;;;;;23.97;32.20;99320.99;1874023;74;28231;-46
2023/04/06 12:42:36;;;;;;;0.47;0.47;;;;;;;23.98;32.18;99322.67;1873017;74;28168;-49
2023/04/06 12:45:25;;;;;;;0.70;0.70;;;;;;;23.99;32.15;99325.72;1872485;76;28131;-48
2023/04/06 12:48:13;;;;;;;0.70;0.70;;;;;;;23.98;32.16;99326.25;1862084;74;28169;-51
2023/04/06 12:51:04;;;;;;;0.40;0.40;;;;;;;23.98;32.12;99315.28;1867091;76;28202;-50
2023/04/06 12:53:52;;;;;;;0.60;0.60;;;;;;;23.98;32.09;99313.91;1883856;74;28138;-48
2023/04/06 12:56:41;;;;;;;0.50;0.50;;;;;;;24.00;32.06;99312.27;1884096;74;28147;-52
2023/04/06 12:59:34;;;;;;;1.07;0.62;;;;;;;23.97;32.02;99312.77;1854294;76;28262;-50
2023/04/06 13:02:23;;;;;;;0.57;0.57;;;;;;;23.97;32.06;99308.64;1877904;76;28169;-48
2023/04/06 13:05:11;;;;;;;0.60;0.60;;;;;;;23.98;32.05;99306.20;1857032;76;28125;-50
2023/04/06 13:08:00;;;;;;;0.45;0.45;;;;;;;23.98;31.99;99307.58;1826857;77;28077;-50
2023/04/06 13:10:50;;;;;;;0.60;0.60;;;;;;;23.97;31.97;99304.53;1804456;78;28231;-52
2023/04/06 13:13:39;;;;;;;0.33;0.33;;;;;;;23.96;31.94;99297.40;1804290;78;28283;-49
2023/04/06 13:16:27;;;;;;;0.60;0.60;;;;;;;23.99;31.90;99303.77;1805307;78;30346;-49
2023/04/06 13:19:16;;;;;;;0.60;0.60;;;;;;;23.97;31.88;99294.39;1808358;78;28365;-50
2023/04/06 13:22:05;;;;;;;0.70;0.40;;;;;;;23.98;31.83;99296.07;1795545;78;28341;-49